Time;durP1;ratioP1;P1;durP2;ratioP2;P2;SDS_P1;SDS_P2;PMS_P1;PMS_P2;Temp;Humidity;BMP_temperature;BMP_pressure;BME280_temperature;BME280_humidity;BME280_pressure;Samples;Min_cycle;Max_cycle;Signal;HPM_P1;HPM_P2
2022/09/09 04:36:04;;;;;;;;;;;24.30;99.90;;;;;;5205967;23;19932;-82
2022/09/09 04:38:31;;;;;;;;;;;24.30;99.90;;;;;;5018618;28;20352;-82
2022/09/09 04:40:58;;;;;;;;;;;24.30;99.90;;;;;;5017915;28;20499;-81
2022/09/09 04:43:25;;;;;;;;;;;24.30;99.90;;;;;;5018307;28;20468;-81
2022/09/09 04:45:52;;;;;;;;;;;24.30;99.90;;;;;;5018902;28;19929;-81
2022/09/09 04:48:19;;;;;;;;;;;24.30;99.90;;;;;;5018514;28;19947;-81
2022/09/09 04:50:55;;;;;;;;;;;24.30;99.90;;;;;;5018405;28;19926;-83
2022/09/09 04:53:25;;;;;;;;;;;24.30;99.90;;;;;;5018356;28;19969;-82
2022/09/09 04:55:51;;;;;;;;;;;24.30;99.90;;;;;;5017979;28;19972;-84
2022/09/09 04:58:18;;;;;;;;;;;24.30;99.90;;;;;;5017994;28;20012;-83
2022/09/09 05:00:45;;;;;;;;;;;24.30;99.90;;;;;;5017739;28;20008;-83
2022/09/09 05:03:12;;;;;;;;;;;24.30;99.90;;;;;;5017462;28;20012;-83
2022/09/09 05:05:39;;;;;;;;;;;24.30;99.90;;;;;;5017446;28;19925;-83
2022/09/09 05:08:06;;;;;;;;;;;24.30;99.90;;;;;;5017397;28;20345;-83
2022/09/09 05:10:34;;;;;;;;;;;24.30;99.90;;;;;;5017734;28;19931;-81
2022/09/09 05:13:01;;;;;;;;;;;24.30;99.90;;;;;;5019665;28;20343;-82
2022/09/09 05:15:28;;;;;;;;;;;24.20;99.90;;;;;;5019259;28;20443;-82
2022/09/09 05:17:58;;;;;;;;;;;24.30;99.90;;;;;;5042359;22;19929;-80
2022/09/09 05:20:24;;;;;;;;;;;24.20;99.90;;;;;;5018420;28;20323;-78
2022/09/09 05:22:53;;;;;;;;;;;24.20;99.90;;;;;;5017255;28;19972;-80
2022/09/09 05:25:20;;;;;;;;;;;24.20;99.90;;;;;;5018072;28;19925;-80
2022/09/09 05:27:48;;;;;;;;;;;24.20;99.90;;;;;;5017810;28;19932;-80
2022/09/09 05:30:14;;;;;;;;;;;24.30;99.90;;;;;;5018283;28;19925;-80
2022/09/09 05:32:41;;;;;;;;;;;24.30;99.90;;;;;;5018399;28;20012;-80
2022/09/09 05:35:08;;;;;;;;;;;24.20;99.90;;;;;;5018451;28;19969;-80
2022/09/09 05:37:34;;;;;;;;;;;24.20;99.90;;;;;;5018166;28;20027;-81
2022/09/09 05:40:01;;;;;;;;;;;24.20;99.90;;;;;;5018280;28;20344;-81
2022/09/09 05:42:30;;;;;;;;;;;24.20;99.90;;;;;;5017407;28;19972;-79
2022/09/09 05:44:58;;;;;;;;;;;24.20;99.90;;;;;;5016448;28;20397;-80
2022/09/09 05:47:27;;;;;;;;;;;24.20;99.90;;;;;;5017597;28;19925;-80
2022/09/09 05:49:54;;;;;;;;;;;24.20;99.90;;;;;;5016836;28;20009;-80
2022/09/09 05:52:20;;;;;;;;;;;24.20;99.90;;;;;;5016295;28;19925;-78
2022/09/09 05:54:47;;;;;;;;;;;24.20;99.90;;;;;;5016485;28;19932;-78
2022/09/09 05:57:14;;;;;;;;;;;24.20;99.90;;;;;;5016242;28;19977;-79
2022/09/09 05:59:41;;;;;;;;;;;24.20;99.90;;;;;;5016723;28;19948;-79
2022/09/09 06:02:09;;;;;;;;;;;24.20;99.90;;;;;;5018120;28;19987;-79
2022/09/09 06:04:36;;;;;;;;;;;24.20;99.90;;;;;;5016882;28;19932;-79
2022/09/09 06:07:03;;;;;;;;;;;24.20;99.90;;;;;;5016539;28;19976;-79
2022/09/09 06:09:30;;;;;;;;;;;24.20;99.90;;;;;;5015592;28;20012;-79
2022/09/09 06:11:57;;;;;;;;;;;24.20;99.90;;;;;;5016186;28;20280;-79
2022/09/09 06:14:25;;;;;;;;;;;24.30;99.90;;;;;;5016494;28;19929;-79
2022/09/09 06:16:51;;;;;;;;;;;24.20;99.90;;;;;;5016309;28;20301;-79
2022/09/09 06:19:20;;;;;;;;;;;24.20;99.90;;;;;;5015194;28;20274;-79
2022/09/09 06:21:47;;;;;;;;;;;24.30;99.90;;;;;;5015744;28;19968;-79
2022/09/09 06:24:17;;;;;;;;;;;24.30;99.90;;;;;;5015669;28;19980;-79
2022/09/09 06:26:45;;;;;;;;;;;24.30;99.90;;;;;;5019414;28;19972;-82
2022/09/09 06:29:12;;;;;;;;;;;24.30;99.90;;;;;;5023598;28;19929;-84
2022/09/09 06:31:40;;;;;;;;;;;24.30;99.90;;;;;;5021780;28;20328;-83
2022/09/09 06:34:09;;;;;;;;;;;24.30;99.90;;;;;;5020322;28;19972;-80
2022/09/09 06:36:38;;;;;;;;;;;24.30;99.90;;;;;;5021904;28;20020;-82
2022/09/09 06:39:04;;;;;;;;;;;24.30;99.90;;;;;;5017301;28;19926;-82
2022/09/09 06:41:32;;;;;;;;;;;24.30;99.90;;;;;;5018176;28;20020;-82
2022/09/09 06:43:59;;;;;;;;;;;24.30;99.90;;;;;;5017775;28;19926;-81
2022/09/09 06:46:27;;;;;;;;;;;24.30;99.90;;;;;;5017630;28;20016;-83
2022/09/09 06:48:55;;;;;;;;;;;24.30;99.90;;;;;;5017091;28;20447;-80
2022/09/09 06:51:23;;;;;;;;;;;24.30;99.90;;;;;;5016104;28;20494;-80
2022/09/09 06:53:52;;;;;;;;;;;24.30;99.90;;;;;;5016347;28;19932;-81
2022/09/09 06:56:21;;;;;;;;;;;24.30;99.90;;;;;;5015606;28;19960;-81
2022/09/09 06:58:48;;;;;;;;;;;24.30;99.90;;;;;;5017423;28;19925;-80
2022/09/09 07:01:16;;;;;;;;;;;24.30;99.90;;;;;;5017922;28;19926;-80
2022/09/09 07:03:43;;;;;;;;;;;24.30;99.90;;;;;;5018221;28;19929;-79
2022/09/09 07:06:14;;;;;;;;;;;24.20;99.90;;;;;;5017231;28;20024;-78
2022/09/09 07:08:41;;;;;;;;;;;24.20;99.90;;;;;;5018722;28;19925;-78
2022/09/09 07:11:09;;;;;;;;;;;24.20;99.90;;;;;;5017955;28;19965;-79
2022/09/09 07:13:36;;;;;;;;;;;24.20;99.90;;;;;;5017952;28;19932;-79
2022/09/09 07:16:04;;;;;;;;;;;24.20;99.90;;;;;;5017375;28;19930;-81
2022/09/09 07:18:31;;;;;;;;;;;24.20;99.90;;;;;;5014658;28;19951;-81
2022/09/09 07:20:57;;;;;;;;;;;24.20;99.90;;;;;;5014700;28;19933;-81
2022/09/09 07:23:25;;;;;;;;;;;24.20;99.90;;;;;;5016619;28;19926;-80
2022/09/09 07:25:52;;;;;;;;;;;24.20;99.80;;;;;;5017717;28;19925;-79
2022/09/09 07:28:20;;;;;;;;;;;24.20;99.80;;;;;;5017416;28;20265;-80
2022/09/09 07:30:53;;;;;;;;;;;24.20;99.70;;;;;;5016042;28;19976;-79
2022/09/09 07:33:20;;;;;;;;;;;24.20;99.70;;;;;;5015162;28;19925;-79
2022/09/09 07:35:47;;;;;;;;;;;24.20;99.40;;;;;;5015136;28;19929;-79
2022/09/09 07:38:15;;;;;;;;;;;24.10;99.30;;;;;;5015040;28;19992;-78
2022/09/09 07:40:41;;;;;;;;;;;24.20;99.10;;;;;;5014862;28;20285;-79
2022/09/09 07:43:08;;;;;;;;;;;24.20;99.00;;;;;;5014694;28;19925;-78
2022/09/09 07:45:36;;;;;;;;;;;24.20;98.80;;;;;;5014512;28;19932;-78
2022/09/09 07:48:03;;;;;;;;;;;24.10;98.60;;;;;;5014520;28;20460;-78
2022/09/09 07:50:30;;;;;;;;;;;24.10;98.50;;;;;;5015288;28;19932;-78
2022/09/09 07:52:57;;;;;;;;;;;24.10;98.40;;;;;;5016270;28;20008;-79
2022/09/09 07:55:25;;;;;;;;;;;24.10;98.20;;;;;;5015912;28;19973;-79
2022/09/09 07:57:51;;;;;;;;;;;24.20;98.00;;;;;;5016311;28;19929;-78
2022/09/09 08:00:19;;;;;;;;;;;24.10;97.80;;;;;;5015922;28;19925;-78
2022/09/09 08:02:47;;;;;;;;;;;24.10;97.70;;;;;;5015609;28;20373;-78
2022/09/09 08:05:14;;;;;;;;;;;24.10;97.50;;;;;;5015812;28;20306;-78
2022/09/09 08:07:41;;;;;;;;;;;24.10;97.30;;;;;;5015691;28;19933;-79
2022/09/09 08:10:08;;;;;;;;;;;24.10;97.30;;;;;;5019562;28;19972;-79
2022/09/09 08:12:34;;;;;;;;;;;24.10;97.20;;;;;;5019690;28;19926;-79
2022/09/09 08:15:01;;;;;;;;;;;24.10;97.00;;;;;;5019808;28;19971;-79
2022/09/09 08:17:28;;;;;;;;;;;24.10;96.90;;;;;;5019423;28;19925;-79
2022/09/09 08:19:56;;;;;;;;;;;24.10;96.80;;;;;;5019668;28;19972;-79
2022/09/09 08:22:24;;;;;;;;;;;24.10;96.60;;;;;;5019593;28;19932;-79
2022/09/09 08:24:51;;;;;;;;;;;24.10;96.50;;;;;;5019541;28;19926;-79
2022/09/09 08:27:17;;;;;;;;;;;24.10;96.40;;;;;;5020023;28;19984;-79
2022/09/09 08:29:44;;;;;;;;;;;24.10;96.20;;;;;;5020185;28;19964;-79
2022/09/09 08:32:11;;;;;;;;;;;24.10;96.10;;;;;;5019612;28;20389;-79
2022/09/09 08:34:37;;;;;;;;;;;24.10;96.00;;;;;;5019481;28;19964;-79
2022/09/09 08:37:05;;;;;;;;;;;24.10;95.90;;;;;;5019568;28;19980;-79
2022/09/09 08:39:32;;;;;;;;;;;24.10;95.80;;;;;;5019537;28;19925;-79
2022/09/09 08:42:11;;;;;;;;;;;24.10;95.70;;;;;;5019434;28;19925;-79
2022/09/09 08:44:52;;;;;;;;;;;24.10;95.60;;;;;;5019228;28;19926;-79
2022/09/09 08:47:22;;;;;;;;;;;24.10;95.70;;;;;;5019331;28;19925;-78
2022/09/09 08:49:56;;;;;;;;;;;24.10;95.60;;;;;;5020432;28;19925;-78
2022/09/09 08:52:27;;;;;;;;;;;24.10;95.60;;;;;;5018781;28;20025;-79
2022/09/09 08:54:55;;;;;;;;;;;24.10;95.50;;;;;;5018766;28;20395;-79
2022/09/09 08:57:26;;;;;;;;;;;24.10;95.50;;;;;;5020287;28;20024;-79
2022/09/09 08:59:55;;;;;;;;;;;24.10;95.40;;;;;;5018299;28;19972;-78
2022/09/09 09:02:26;;;;;;;;;;;24.10;95.30;;;;;;5020941;28;19952;-80
2022/09/09 09:05:00;;;;;;;;;;;24.10;95.30;;;;;;5019627;28;19932;-79
2022/09/09 09:07:34;;;;;;;;;;;24.10;95.20;;;;;;5019984;28;19932;-80
2022/09/09 09:10:03;;;;;;;;;;;24.10;95.10;;;;;;5020554;28;19941;-80
2022/09/09 09:12:33;;;;;;;;;;;24.10;95.10;;;;;;5020219;28;19972;-80
2022/09/09 09:15:00;;;;;;;;;;;24.10;95.00;;;;;;5019907;28;20012;-79
2022/09/09 09:17:27;;;;;;;;;;;24.10;94.90;;;;;;5019805;28;20016;-79
2022/09/09 09:19:54;;;;;;;;;;;24.10;94.80;;;;;;5019716;28;20035;-79
2022/09/09 09:22:22;;;;;;;;;;;24.10;94.80;;;;;;5019801;28;19933;-79
2022/09/09 09:24:52;;;;;;;;;;;24.10;94.80;;;;;;5018993;28;19926;-80
2022/09/09 09:27:23;;;;;;;;;;;24.10;94.70;;;;;;5020120;28;19926;-81
2022/09/09 09:29:52;;;;;;;;;;;24.10;94.50;;;;;;5019237;28;19929;-80
2022/09/09 09:32:20;;;;;;;;;;;24.10;94.30;;;;;;5019663;28;19926;-80
2022/09/09 09:34:50;;;;;;;;;;;24.10;94.20;;;;;;5020157;28;20036;-81
2022/09/09 09:37:19;;;;;;;;;;;24.00;94.00;;;;;;5018991;28;19926;-82
2022/09/09 09:39:46;;;;;;;;;;;24.00;93.80;;;;;;5019390;28;19975;-82
2022/09/09 09:42:15;;;;;;;;;;;24.00;93.70;;;;;;5019224;28;19976;-82
2022/09/09 09:44:42;;;;;;;;;;;24.00;93.50;;;;;;5018843;28;20012;-81
2022/09/09 09:47:10;;;;;;;;;;;24.00;93.30;;;;;;5018300;28;20008;-81
2022/09/09 09:49:37;;;;;;;;;;;24.00;93.10;;;;;;5020470;28;19960;-83
2022/09/09 09:52:04;;;;;;;;;;;24.00;92.90;;;;;;5022919;28;20008;-83
2022/09/09 09:54:32;;;;;;;;;;;24.00;92.70;;;;;;5029582;28;20401;-82
2022/09/09 09:57:08;;;;;;;;;;;24.00;92.40;;;;;;5025633;28;19953;-82
2022/09/09 09:59:39;;;;;;;;;;;24.00;92.30;;;;;;5024706;28;19989;-81
2022/09/09 10:02:16;;;;;;;;;;;24.00;92.30;;;;;;5024459;28;19926;-82
2022/09/09 10:04:45;;;;;;;;;;;23.90;92.00;;;;;;5022142;28;20024;-81
2022/09/09 10:07:12;;;;;;;;;;;23.90;91.70;;;;;;5023735;28;19925;-83
2022/09/09 10:09:40;;;;;;;;;;;23.90;91.40;;;;;;5021378;28;20020;-81
2022/09/09 10:12:10;;;;;;;;;;;23.90;91.20;;;;;;5022605;28;19925;-81
2022/09/09 10:14:43;;;;;;;;;;;23.90;91.00;;;;;;5024888;28;19926;-80
2022/09/09 10:17:14;;;;;;;;;;;23.90;90.80;;;;;;5022135;28;19925;-80
2022/09/09 10:19:45;;;;;;;;;;;23.90;90.60;;;;;;5020185;28;19988;-79
2022/09/09 10:22:20;;;;;;;;;;;23.80;90.30;;;;;;5017643;28;20002;-80
2022/09/09 10:25:12;;;;;;;;;;;23.80;90.00;;;;;;5019020;28;19989;-83
2022/09/09 10:27:44;;;;;;;;;;;23.80;89.50;;;;;;5020499;28;19993;-81
2022/09/09 10:30:16;;;;;;;;;;;23.80;89.30;;;;;;5019585;28;19929;-81
2022/09/09 10:32:46;;;;;;;;;;;23.80;89.20;;;;;;5019329;28;20016;-80
2022/09/09 10:35:15;;;;;;;;;;;23.80;88.60;;;;;;5019292;28;20401;-81
2022/09/09 10:37:46;;;;;;;;;;;23.80;88.10;;;;;;5020685;28;20452;-81
2022/09/09 10:40:21;;;;;;;;;;;23.80;87.70;;;;;;5020624;28;19964;-81
2022/09/09 10:42:48;;;;;;;;;;;23.80;87.30;;;;;;5018355;28;20023;-81
2022/09/09 10:45:20;;;;;;;;;;;23.80;86.90;;;;;;5018913;28;20029;-81
2022/09/09 10:48:01;;;;;;;;;;;23.80;86.50;;;;;;5018095;28;19926;-80
2022/09/09 10:50:40;;;;;;;;;;;23.70;86.00;;;;;;5016722;28;20020;-82
2022/09/09 10:53:10;;;;;;;;;;;23.80;85.80;;;;;;5020008;28;20016;-81
2022/09/09 10:55:40;;;;;;;;;;;23.80;85.40;;;;;;5020260;28;19925;-84
2022/09/09 10:58:08;;;;;;;;;;;23.70;84.90;;;;;;5019146;28;19968;-82
2022/09/09 11:00:39;;;;;;;;;;;23.70;84.50;;;;;;5017529;28;19925;-80
2022/09/09 11:03:08;;;;;;;;;;;23.70;84.00;;;;;;5016705;28;20444;-81
2022/09/09 11:05:39;;;;;;;;;;;23.70;83.40;;;;;;5017410;28;20357;-80
2022/09/09 11:08:11;;;;;;;;;;;23.70;83.40;;;;;;5018952;28;20016;-80
2022/09/09 11:10:40;;;;;;;;;;;23.80;84.10;;;;;;5021203;28;19948;-80
2022/09/09 11:13:11;;;;;;;;;;;23.80;83.80;;;;;;5033859;28;19926;-80
2022/09/09 11:15:44;;;;;;;;;;;23.80;83.80;;;;;;5035036;28;19957;-80
2022/09/09 11:18:13;;;;;;;;;;;23.80;83.70;;;;;;5043571;23;20028;-81
2022/09/09 11:20:40;;;;;;;;;;;23.90;83.70;;;;;;5018678;28;19989;-83
2022/09/09 11:23:10;;;;;;;;;;;23.90;83.70;;;;;;5017663;28;20398;-80
2022/09/09 11:25:39;;;;;;;;;;;23.80;82.90;;;;;;5018238;28;19932;-83
2022/09/09 11:28:22;;;;;;;;;;;23.80;82.50;;;;;;5018473;28;19925;-85
2022/09/09 11:30:57;;;;;;;;;;;23.80;82.40;;;;;;5016156;28;20411;-84
2022/09/09 11:33:38;;;;;;;;;;;23.70;81.30;;;;;;5015589;28;20399;-84
2022/09/09 11:36:12;;;;;;;;;;;23.60;80.10;;;;;;5018261;28;19926;-79
2022/09/09 11:38:43;;;;;;;;;;;23.60;79.80;;;;;;5017867;28;20035;-79
2022/09/09 11:41:10;;;;;;;;;;;23.50;79.40;;;;;;5017880;28;19980;-80
2022/09/09 11:43:41;;;;;;;;;;;23.50;79.10;;;;;;5018380;28;19990;-78
2022/09/09 11:46:09;;;;;;;;;;;23.50;78.90;;;;;;5020520;28;19925;-78
2022/09/09 11:48:37;;;;;;;;;;;23.50;78.70;;;;;;5020062;28;19925;-78
2022/09/09 11:51:07;;;;;;;;;;;23.60;78.60;;;;;;5019986;28;19929;-79
2022/09/09 11:53:34;;;;;;;;;;;23.60;78.20;;;;;;5020112;28;19976;-79
2022/09/09 11:56:09;;;;;;;;;;;23.60;77.60;;;;;;5020091;28;19948;-79
2022/09/09 11:58:45;;;;;;;;;;;23.60;77.60;;;;;;5019798;28;19925;-79
2022/09/09 12:01:30;;;;;;;;;;;23.60;77.60;;;;;;5020511;28;20369;-80
2022/09/09 12:04:06;;;;;;;;;;;23.60;77.60;;;;;;5021346;28;19933;-81
2022/09/09 12:06:34;;;;;;;;;;;23.70;77.30;;;;;;5021665;28;19925;-81
2022/09/09 12:09:07;;;;;;;;;;;23.70;77.10;;;;;;5022544;28;19973;-81
2022/09/09 12:11:34;;;;;;;;;;;23.70;77.80;;;;;;5025050;28;19925;-81
2022/09/09 12:14:01;;;;;;;;;;;23.70;76.90;;;;;;5024861;28;20008;-82
2022/09/09 12:16:33;;;;;;;;;;;23.70;76.80;;;;;;5022356;28;19937;-80
2022/09/09 12:19:14;;;;;;;;;;;23.80;77.50;;;;;;5023205;28;19993;-80
2022/09/09 12:21:45;;;;;;;;;;;23.80;76.60;;;;;;5022474;28;19932;-81
2022/09/09 12:24:13;;;;;;;;;;;23.80;76.50;;;;;;5022545;28;20363;-82
2022/09/09 12:26:44;;;;;;;;;;;23.80;76.30;;;;;;5021311;28;19931;-82
2022/09/09 12:29:14;;;;;;;;;;;23.80;76.30;;;;;;5020036;28;19937;-81
2022/09/09 12:31:44;;;;;;;;;;;23.80;76.20;;;;;;5020007;28;20491;-81
2022/09/09 12:34:16;;;;;;;;;;;23.90;76.30;;;;;;5020811;28;20015;-81
2022/09/09 12:36:45;;;;;;;;;;;23.90;76.20;;;;;;5019854;28;20008;-80
2022/09/09 12:39:17;;;;;;;;;;;23.90;76.00;;;;;;5019613;28;19926;-82
2022/09/09 12:41:52;;;;;;;;;;;24.00;76.10;;;;;;5019967;28;19925;-82
2022/09/09 12:44:19;;;;;;;;;;;24.00;76.00;;;;;;5019227;28;19933;-79
2022/09/09 12:46:47;;;;;;;;;;;24.00;75.90;;;;;;5020664;28;19984;-78
2022/09/09 12:49:27;;;;;;;;;;;24.00;75.50;;;;;;5020554;28;20395;-79
2022/09/09 12:51:54;;;;;;;;;;;24.00;75.30;;;;;;5019809;28;19926;-81
2022/09/09 12:54:20;;;;;;;;;;;23.90;75.10;;;;;;5020564;28;19947;-80
2022/09/09 12:56:48;;;;;;;;;;;23.90;75.00;;;;;;5020639;28;19925;-78
2022/09/09 12:59:22;;;;;;;;;;;24.00;75.00;;;;;;5017994;28;20377;-78
2022/09/09 13:01:55;;;;;;;;;;;23.90;74.70;;;;;;5017154;28;19936;-78
2022/09/09 13:04:22;;;;;;;;;;;24.00;74.60;;;;;;5018758;28;19925;-79
2022/09/09 13:06:52;;;;;;;;;;;24.00;74.50;;;;;;5016758;28;20411;-77
2022/09/09 13:09:18;;;;;;;;;;;24.00;74.30;;;;;;5017459;28;20032;-78
2022/09/09 13:11:47;;;;;;;;;;;24.00;74.10;;;;;;5019010;28;19932;-79
2022/09/09 13:14:18;;;;;;;;;;;24.00;74.00;;;;;;5018373;28;19926;-78
2022/09/09 13:16:55;;;;;;;;;;;24.00;73.90;;;;;;5018011;28;19926;-78
2022/09/09 13:19:22;;;;;;;;;;;24.00;73.70;;;;;;5017583;28;19925;-79
2022/09/09 13:21:49;;;;;;;;;;;24.00;73.60;;;;;;5018459;28;19930;-79
2022/09/09 13:24:26;;;;;;;;;;;24.00;73.40;;;;;;5019820;28;19925;-79
2022/09/09 13:26:55;;;;;;;;;;;24.00;73.30;;;;;;5018337;28;20376;-80
2022/09/09 13:29:22;;;;;;;;;;;24.00;73.10;;;;;;5018562;28;19929;-81
2022/09/09 13:31:52;;;;;;;;;;;24.00;72.90;;;;;;5018326;28;20090;-83
2022/09/09 13:34:28;;;;;;;;;;;24.00;72.80;;;;;;5019118;28;20276;-83
2022/09/09 13:36:58;;;;;;;;;;;24.00;72.50;;;;;;5019148;28;19948;-81
2022/09/09 13:39:26;;;;;;;;;;;24.00;72.20;;;;;;5018731;28;20389;-82
2022/09/09 13:41:53;;;;;;;;;;;24.00;72.10;;;;;;5018637;28;20024;-82
2022/09/09 13:44:23;;;;;;;;;;;24.00;72.10;;;;;;5018075;28;19929;-81
2022/09/09 13:47:00;;;;;;;;;;;24.00;72.10;;;;;;5017983;28;20340;-81
2022/09/09 13:49:28;;;;;;;;;;;24.10;72.10;;;;;;5017761;28;19981;-79
2022/09/09 13:52:04;;;;;;;;;;;24.10;71.90;;;;;;5019702;28;19968;-81
2022/09/09 13:54:32;;;;;;;;;;;24.10;71.50;;;;;;5019155;28;19949;-81
2022/09/09 13:57:00;;;;;;;;;;;24.00;71.00;;;;;;5017645;28;19985;-82
2022/09/09 13:59:27;;;;;;;;;;;24.00;70.80;;;;;;5020684;28;19932;-81
2022/09/09 14:01:54;;;;;;;;;;;24.00;70.70;;;;;;5019001;28;19989;-80
2022/09/09 14:04:21;;;;;;;;;;;24.00;70.60;;;;;;5018083;28;19979;-80
2022/09/09 14:06:48;;;;;;;;;;;24.00;70.30;;;;;;5017861;28;19948;-79
2022/09/09 14:09:16;;;;;;;;;;;24.00;70.10;;;;;;5019587;28;20444;-79
2022/09/09 14:11:45;;;;;;;;;;;24.00;69.80;;;;;;5019019;28;19926;-79
2022/09/09 14:14:11;;;;;;;;;;;24.00;69.70;;;;;;5018985;28;19932;-79
2022/09/09 14:16:38;;;;;;;;;;;24.00;69.40;;;;;;5017971;28;20023;-78
2022/09/09 14:19:05;;;;;;;;;;;24.00;69.30;;;;;;5018176;28;19932;-80
2022/09/09 14:21:32;;;;;;;;;;;24.00;69.10;;;;;;5018946;28;19929;-80
2022/09/09 14:23:59;;;;;;;;;;;24.00;68.80;;;;;;5021245;28;19925;-79
2022/09/09 14:26:28;;;;;;;;;;;24.00;68.60;;;;;;5019946;28;19931;-79
2022/09/09 14:28:57;;;;;;;;;;;24.00;69.10;;;;;;5021309;28;19933;-79
2022/09/09 14:31:24;;;;;;;;;;;24.00;68.10;;;;;;5021351;28;19926;-79
2022/09/09 14:33:52;;;;;;;;;;;24.00;67.80;;;;;;5022193;28;20016;-79
2022/09/09 14:36:19;;;;;;;;;;;24.00;67.50;;;;;;5020940;28;19925;-78
2022/09/09 14:38:46;;;;;;;;;;;23.90;67.20;;;;;;5021554;28;19925;-78
2022/09/09 14:41:14;;;;;;;;;;;23.90;67.00;;;;;;5021247;28;19926;-78
2022/09/09 14:43:41;;;;;;;;;;;24.00;66.80;;;;;;5020804;28;19937;-79
2022/09/09 14:46:10;;;;;;;;;;;23.90;66.40;;;;;;5021126;28;19932;-79
2022/09/09 14:48:38;;;;;;;;;;;23.90;66.00;;;;;;5020633;28;19932;-78
2022/09/09 14:51:06;;;;;;;;;;;24.00;66.10;;;;;;5020956;28;20433;-80
2022/09/09 14:53:32;;;;;;;;;;;23.90;66.00;;;;;;5020072;28;19992;-79
2022/09/09 14:56:03;;;;;;;;;;;23.90;66.00;;;;;;5020187;28;19960;-80
2022/09/09 14:58:31;;;;;;;;;;;23.90;65.60;;;;;;5017164;28;19932;-78
2022/09/09 15:01:02;;;;;;;;;;;23.90;65.30;;;;;;5016538;28;20012;-78
2022/09/09 15:03:30;;;;;;;;;;;23.90;65.10;;;;;;5016285;28;19925;-78
2022/09/09 15:05:58;;;;;;;;;;;23.90;64.90;;;;;;5017197;28;19925;-78
2022/09/09 15:08:24;;;;;;;;;;;23.90;64.70;;;;;;5015913;28;19975;-78
2022/09/09 15:10:59;;;;;;;;;;;23.90;64.50;;;;;;5015308;28;19932;-78
2022/09/09 15:13:25;;;;;;;;;;;23.90;64.30;;;;;;5015948;28;19969;-78
2022/09/09 15:15:53;;;;;;;;;;;23.90;64.10;;;;;;5015870;28;19980;-78
2022/09/09 15:18:20;;;;;;;;;;;23.90;63.90;;;;;;5017800;28;19929;-78
2022/09/09 15:20:48;;;;;;;;;;;23.90;63.70;;;;;;5020378;28;19961;-78
2022/09/09 15:23:16;;;;;;;;;;;23.90;63.60;;;;;;5020660;28;19926;-78
2022/09/09 15:25:51;;;;;;;;;;;23.90;63.40;;;;;;5020071;28;19929;-78
2022/09/09 15:28:18;;;;;;;;;;;23.90;63.20;;;;;;5020446;28;19925;-78
2022/09/09 15:30:47;;;;;;;;;;;23.90;63.00;;;;;;5019379;28;19932;-78
2022/09/09 15:33:14;;;;;;;;;;;23.90;62.80;;;;;;5019664;28;19925;-80
2022/09/09 15:35:41;;;;;;;;;;;23.90;62.60;;;;;;5021554;28;19969;-80
2022/09/09 15:38:09;;;;;;;;;;;23.90;62.50;;;;;;5021792;28;19926;-82
2022/09/09 15:40:35;;;;;;;;;;;23.90;62.30;;;;;;5020927;28;20016;-80
2022/09/09 15:43:05;;;;;;;;;;;23.90;62.10;;;;;;5020591;28;19932;-80
2022/09/09 15:45:33;;;;;;;;;;;23.90;62.00;;;;;;5019737;28;19925;-79
2022/09/09 15:47:59;;;;;;;;;;;23.90;61.80;;;;;;5020406;28;20008;-79
2022/09/09 15:50:26;;;;;;;;;;;23.90;61.70;;;;;;5020449;28;20403;-80
2022/09/09 15:52:53;;;;;;;;;;;23.90;61.50;;;;;;5020029;28;20335;-80
2022/09/09 15:55:21;;;;;;;;;;;23.90;61.40;;;;;;5021045;28;20399;-80
2022/09/09 15:57:48;;;;;;;;;;;23.90;61.30;;;;;;5019327;28;19980;-77
2022/09/09 16:00:15;;;;;;;;;;;23.90;61.20;;;;;;5017484;28;20003;-77
2022/09/09 16:02:42;;;;;;;;;;;23.90;61.80;;;;;;5017448;28;19952;-77
2022/09/09 16:05:09;;;;;;;;;;;23.90;60.80;;;;;;5017048;28;20411;-76
2022/09/09 16:07:36;;;;;;;;;;;23.90;60.60;;;;;;5017075;28;20381;-77
2022/09/09 16:10:02;;;;;;;;;;;23.90;60.30;;;;;;5017054;28;20369;-77
2022/09/09 16:12:31;;;;;;;;;;;23.80;59.80;;;;;;5017314;28;19925;-77
2022/09/09 16:14:59;;;;;;;;;;;23.80;59.80;;;;;;5016990;28;19979;-77
2022/09/09 16:17:27;;;;;;;;;;;23.80;59.80;;;;;;5018250;28;19984;-78
2022/09/09 16:19:54;;;;;;;;;;;23.80;59.80;;;;;;5019918;28;20447;-78
2022/09/09 16:22:21;;;;;;;;;;;23.80;59.80;;;;;;5020782;28;20305;-78
2022/09/09 16:24:51;;;;;;;;;;;23.80;59.60;;;;;;5018206;28;19972;-78
2022/09/09 16:27:18;;;;;;;;;;;23.80;59.50;;;;;;5019635;28;19926;-80
2022/09/09 16:29:47;;;;;;;;;;;23.80;59.30;;;;;;5019149;28;20373;-79
2022/09/09 16:32:14;;;;;;;;;;;23.80;59.20;;;;;;5018529;28;20365;-80
2022/09/09 16:34:42;;;;;;;;;;;23.80;59.10;;;;;;5020256;28;19925;-80
2022/09/09 16:37:11;;;;;;;;;;;23.80;59.00;;;;;;5019767;28;19931;-79
2022/09/09 16:39:37;;;;;;;;;;;23.80;59.00;;;;;;5019103;28;19925;-80
2022/09/09 16:42:05;;;;;;;;;;;23.80;58.90;;;;;;5018823;28;19965;-80
2022/09/09 16:44:32;;;;;;;;;;;23.80;58.80;;;;;;5019156;28;19929;-80
2022/09/09 16:47:00;;;;;;;;;;;23.80;58.80;;;;;;5018379;28;19926;-80
2022/09/09 16:49:28;;;;;;;;;;;23.80;58.80;;;;;;5018702;28;19968;-79
2022/09/09 16:51:55;;;;;;;;;;;23.80;58.80;;;;;;5018772;28;19925;-79
2022/09/09 16:54:23;;;;;;;;;;;23.80;58.80;;;;;;5019033;28;19949;-79
2022/09/09 16:56:50;;;;;;;;;;;23.90;58.90;;;;;;5018188;28;20392;-79
2022/09/09 16:59:18;;;;;;;;;;;23.90;58.90;;;;;;5019073;28;20296;-79
2022/09/09 17:01:46;;;;;;;;;;;23.90;59.00;;;;;;5018233;28;19925;-79
2022/09/09 17:04:20;;;;;;;;;;;23.90;59.00;;;;;;5017708;28;20336;-82
2022/09/09 17:06:47;;;;;;;;;;;23.90;59.00;;;;;;5019819;28;19976;-81
2022/09/09 17:09:14;;;;;;;;;;;23.90;59.00;;;;;;5019221;28;20016;-82
2022/09/09 17:11:41;;;;;;;;;;;23.90;59.10;;;;;;5018532;28;19931;-82
2022/09/09 17:14:09;;;;;;;;;;;23.90;59.10;;;;;;5018249;28;19949;-82
2022/09/09 17:16:36;;;;;;;;;;;23.90;59.10;;;;;;5018251;28;19929;-82
2022/09/09 17:19:03;;;;;;;;;;;24.00;59.20;;;;;;5018238;28;20016;-82
2022/09/09 17:21:32;;;;;;;;;;;23.90;59.10;;;;;;5017844;28;20336;-83
2022/09/09 17:23:59;;;;;;;;;;;23.90;59.10;;;;;;5018663;28;19995;-82
2022/09/09 17:26:27;;;;;;;;;;;23.90;59.10;;;;;;5019135;28;19931;-81
2022/09/09 17:28:55;;;;;;;;;;;23.90;59.10;;;;;;5019805;28;19933;-81
2022/09/09 17:31:22;;;;;;;;;;;23.90;59.10;;;;;;5019847;28;19952;-82
2022/09/09 17:33:49;;;;;;;;;;;24.00;59.20;;;;;;5018663;28;19929;-81
2022/09/09 17:36:17;;;;;;;;;;;23.90;59.20;;;;;;5018980;28;20348;-81
2022/09/09 17:38:45;;;;;;;;;;;23.90;59.20;;;;;;5019807;28;19973;-82
2022/09/09 17:41:13;;;;;;;;;;;23.90;59.20;;;;;;5019088;28;19984;-81
2022/09/09 17:43:40;;;;;;;;;;;23.90;59.20;;;;;;5019504;28;19929;-81
2022/09/09 17:46:07;;;;;;;;;;;24.00;59.30;;;;;;5019057;28;19993;-82
2022/09/09 17:48:34;;;;;;;;;;;23.90;59.20;;;;;;5019464;28;19925;-81
2022/09/09 17:51:01;;;;;;;;;;;23.90;59.20;;;;;;5019868;28;19957;-80
2022/09/09 17:53:28;;;;;;;;;;;23.90;59.20;;;;;;5019373;28;19932;-80
2022/09/09 17:55:56;;;;;;;;;;;24.00;59.30;;;;;;5019245;28;20278;-81
2022/09/09 17:58:23;;;;;;;;;;;24.00;59.30;;;;;;5018938;28;20015;-80
2022/09/09 18:00:50;;;;;;;;;;;23.90;59.20;;;;;;5018700;28;19926;-81
2022/09/09 18:03:16;;;;;;;;;;;23.90;59.20;;;;;;5018533;28;19926;-80
2022/09/09 18:05:43;;;;;;;;;;;23.90;59.20;;;;;;5018192;28;19925;-80
2022/09/09 18:08:10;;;;;;;;;;;23.90;59.20;;;;;;5017620;28;19953;-81
2022/09/09 18:10:36;;;;;;;;;;;23.90;59.20;;;;;;5018936;28;20024;-79
2022/09/09 18:13:05;;;;;;;;;;;23.90;59.30;;;;;;5018521;28;19968;-81
2022/09/09 18:15:36;;;;;;;;;;;24.00;59.50;;;;;;5020083;28;19936;-81
2022/09/09 18:18:05;;;;;;;;;;;24.00;59.50;;;;;;5018979;28;20008;-81
2022/09/09 18:20:32;;;;;;;;;;;24.00;59.60;;;;;;5019068;28;20460;-81
2022/09/09 18:22:59;;;;;;;;;;;23.90;59.60;;;;;;5018053;28;19931;-79
2022/09/09 18:25:26;;;;;;;;;;;24.00;59.80;;;;;;5017768;28;19949;-75
2022/09/09 18:27:53;;;;;;;;;;;24.00;59.90;;;;;;5016877;28;19936;-76
2022/09/09 18:30:21;;;;;;;;;;;24.00;59.90;;;;;;5017233;28;19926;-75
2022/09/09 18:32:48;;;;;;;;;;;24.00;59.90;;;;;;5018756;28;19975;-79
2022/09/09 18:35:15;;;;;;;;;;;24.00;60.00;;;;;;5017681;28;19993;-79
2022/09/09 18:37:42;;;;;;;;;;;24.00;59.90;;;;;;5017520;28;20428;-78
2022/09/09 18:40:09;;;;;;;;;;;24.00;59.90;;;;;;5019186;28;20373;-78
2022/09/09 18:42:36;;;;;;;;;;;24.00;59.90;;;;;;5018748;28;20020;-78
2022/09/09 18:45:03;;;;;;;;;;;24.00;60.10;;;;;;5020351;28;19926;-78
2022/09/09 18:47:32;;;;;;;;;;;24.00;60.30;;;;;;5025332;28;20008;-78
2022/09/09 18:49:59;;;;;;;;;;;24.00;60.60;;;;;;5026446;28;19957;-79
2022/09/09 18:52:26;;;;;;;;;;;24.00;60.70;;;;;;5020247;28;19925;-79
2022/09/09 18:54:53;;;;;;;;;;;24.10;61.00;;;;;;5016739;28;19929;-75
2022/09/09 18:57:20;;;;;;;;;;;24.10;61.20;;;;;;5016106;28;19932;-75
2022/09/09 18:59:48;;;;;;;;;;;24.10;61.30;;;;;;5015869;28;19932;-75